createdAt,value
2018-12-08T04:35:35.809Z,0.43
2018-12-08T04:40:38.946Z,1.27
2018-12-08T04:45:42.103Z,2.50
2018-12-08T04:50:45.350Z,1.13
2018-12-08T04:55:48.515Z,1.43
2018-12-08T05:00:51.667Z,0.63
2018-12-08T05:05:54.883Z,2.27
2018-12-08T05:10:58.052Z,0.93
2018-12-08T05:16:01.188Z,0.83
2018-12-08T05:21:04.324Z,0.40
2018-12-08T05:26:07.670Z,0.40
2018-12-08T05:31:10.797Z,1.30
2018-12-08T05:36:13.959Z,1.93
2018-12-08T05:41:17.109Z,0.47
2018-12-08T05:46:20.355Z,1.03
2018-12-08T05:51:23.673Z,3.03
2018-12-08T05:56:26.873Z,0.50
2018-12-08T06:01:30.059Z,1.03
2018-12-08T06:06:33.460Z,4.30
2018-12-08T06:11:36.616Z,2.30
2018-12-08T06:16:39.786Z,1.17
2018-12-08T06:21:44.722Z,3.17
2018-12-08T06:27:10.230Z,1.40
2018-12-08T06:32:13.366Z,1.37
2018-12-08T06:37:16.511Z,3.27
2018-12-08T06:42:19.651Z,0.60
2018-12-08T06:47:22.856Z,2.60
2018-12-08T06:52:26.001Z,1.30
2018-12-08T06:57:29.154Z,5.90
2018-12-08T07:02:32.304Z,0.70
2018-12-08T07:07:35.482Z,0.93
2018-12-08T07:12:38.651Z,0.70
2018-12-08T07:17:41.911Z,1.00
2018-12-08T07:22:45.109Z,1.83
2018-12-08T07:27:48.317Z,1.13
2018-12-08T07:32:51.464Z,1.00
2018-12-08T07:37:54.595Z,2.23
2018-12-08T07:42:57.758Z,1.67
2018-12-08T07:48:00.885Z,3.17
2018-12-08T07:53:04.474Z,2.10
2018-12-08T07:58:07.848Z,8.87
2018-12-08T08:03:11.091Z,2.37
2018-12-08T08:08:14.210Z,5.33
2018-12-08T08:13:17.640Z,5.33
2018-12-08T08:18:20.899Z,6.63
2018-12-08T08:23:24.180Z,11.90
2018-12-08T08:28:27.372Z,9.50
2018-12-08T08:33:30.555Z,11.07
2018-12-08T08:38:33.770Z,7.63
2018-12-08T08:43:36.963Z,6.60
2018-12-08T08:48:40.194Z,8.13
2018-12-08T08:57:09.912Z,6.23
2018-12-08T09:02:13.149Z,6.57
2018-12-08T09:07:16.411Z,2.13
2018-12-08T09:12:19.564Z,2.60
2018-12-08T09:17:23.677Z,3.80
2018-12-08T09:22:26.889Z,9.37
2018-12-08T09:27:30.050Z,7.87
2018-12-08T09:32:33.289Z,4.37
2018-12-08T09:37:36.551Z,4.30
2018-12-08T09:42:39.805Z,5.50
2018-12-08T09:47:42.988Z,6.70
2018-12-08T09:52:52.617Z,6.03
2018-12-08T09:57:55.776Z,2.50
2018-12-08T10:02:59.054Z,3.73
2018-12-08T10:08:02.293Z,4.03
2018-12-08T10:13:05.494Z,5.60
2018-12-08T10:18:08.640Z,4.10
2018-12-08T10:23:11.875Z,3.60
2018-12-08T10:28:15.101Z,4.70
2018-12-08T10:33:18.313Z,4.43
2018-12-08T10:38:21.549Z,3.33
2018-12-08T10:43:25.720Z,2.70
2018-12-08T10:48:28.885Z,3.83
2018-12-08T10:53:31.974Z,4.37
2018-12-08T10:58:35.082Z,5.47
2018-12-08T11:03:46.459Z,4.63
2018-12-08T11:08:49.632Z,2.67
2018-12-08T11:13:52.847Z,3.13
2018-12-08T11:18:55.989Z,3.23
2018-12-08T11:23:59.135Z,3.93
2018-12-08T11:29:02.283Z,1.83
2018-12-08T11:34:05.487Z,5.93
2018-12-08T11:39:08.698Z,2.50
2018-12-08T11:44:12.375Z,2.93
2018-12-08T11:49:15.518Z,2.77
2018-12-08T11:54:18.629Z,2.93
2018-12-08T11:59:22.983Z,12.00
2018-12-08T12:04:26.214Z,9.80
2018-12-08T12:09:29.369Z,15.43
2018-12-08T12:14:41.456Z,18.43
2018-12-08T12:19:44.703Z,15.97
2018-12-08T12:24:49.986Z,10.33
2018-12-08T12:29:53.191Z,13.97
2018-12-08T12:34:56.394Z,13.90
